createdAt,value
2018-06-01T00:00:59.874Z,11.70
2018-06-01T00:03:04.681Z,10.00
2018-06-01T00:05:10.670Z,11.37
2018-06-01T00:07:15.872Z,11.37
2018-06-01T00:09:20.456Z,9.80
2018-06-01T00:11:24.844Z,14.43
2018-06-01T00:13:29.847Z,27.47
2018-06-01T00:15:34.865Z,18.47
2018-06-01T00:17:45.529Z,9.53
2018-06-01T00:19:50.373Z,27.30
2018-06-01T00:21:54.998Z,29.23
2018-06-01T00:23:59.047Z,16.60
2018-06-01T00:26:03.839Z,18.03
2018-06-01T00:28:08.053Z,21.40
2018-06-01T00:30:13.927Z,22.87
2018-06-01T00:32:19.026Z,15.00
2018-06-01T00:34:23.574Z,20.63
2018-06-01T00:36:28.431Z,30.60
2018-06-01T00:38:32.452Z,24.13
2018-06-01T00:40:37.440Z,17.83
2018-06-01T00:42:41.446Z,17.07
2018-06-01T00:44:45.343Z,20.50
2018-06-01T00:46:49.325Z,16.20
2018-06-01T00:48:53.245Z,16.80
2018-06-01T00:50:57.191Z,10.33
2018-06-01T00:53:01.065Z,8.10
2018-06-01T00:55:27.376Z,9.03
2018-06-01T00:57:31.314Z,12.47
2018-06-01T00:59:35.166Z,11.33
2018-06-01T01:01:40.386Z,7.40
2018-06-01T01:03:44.396Z,5.27
2018-06-01T01:05:48.301Z,6.00
2018-06-01T01:07:52.499Z,6.30
2018-06-01T01:09:57.201Z,3.57
2018-06-01T01:12:01.057Z,6.10
2018-06-01T01:14:05.683Z,5.90
2018-06-01T01:16:09.501Z,3.60
2018-06-01T01:18:13.921Z,4.00
2018-06-01T01:20:19.143Z,8.13
2018-06-01T01:22:22.989Z,6.07
2018-06-01T01:24:28.199Z,2.90
2018-06-01T01:26:33.217Z,3.23
2018-06-01T01:28:37.041Z,3.90
2018-06-01T01:30:42.294Z,3.57
2018-06-01T01:32:46.448Z,4.53
2018-06-01T01:34:52.037Z,3.97
2018-06-01T01:37:07.030Z,4.33
2018-06-01T01:39:10.952Z,3.27
2018-06-01T01:41:17.629Z,4.50
2018-06-01T01:43:21.526Z,5.83
2018-06-01T01:45:25.929Z,3.53
2018-06-01T01:47:30.845Z,3.47
2018-06-01T01:49:34.979Z,6.33
2018-06-01T01:51:39.727Z,2.00
2018-06-01T01:53:44.076Z,4.20
2018-06-01T01:55:48.472Z,4.03
2018-06-01T01:57:54.921Z,3.40
2018-06-01T01:59:58.967Z,4.03
2018-06-01T02:02:03.074Z,3.63
2018-06-01T02:04:07.631Z,3.00
2018-06-01T02:06:11.536Z,3.63
2018-06-01T02:08:16.485Z,2.93
2018-06-01T02:10:21.118Z,3.40
2018-06-01T02:12:24.981Z,2.30
2018-06-01T02:14:28.941Z,2.67
2018-06-01T02:16:33.193Z,1.50
2018-06-01T02:18:37.331Z,7.30
2018-06-01T02:20:42.032Z,2.77
2018-06-01T02:22:46.422Z,5.60
2018-06-01T02:24:52.711Z,7.67
2018-06-01T02:26:57.484Z,3.33
2018-06-01T02:29:01.590Z,2.87
2018-06-01T02:31:06.941Z,3.43
2018-06-01T02:33:10.895Z,3.63
2018-06-01T02:35:14.911Z,2.10
2018-06-01T02:37:18.760Z,4.47
2018-06-01T02:39:23.201Z,3.10
2018-06-01T02:41:27.802Z,3.57
2018-06-01T02:43:31.790Z,3.47
2018-06-01T02:45:41.082Z,4.00
2018-06-01T02:47:45.085Z,1.73
2018-06-01T02:49:49.017Z,4.37
2018-06-01T02:51:52.994Z,2.73
2018-06-01T02:53:56.955Z,4.67
2018-06-01T02:56:00.929Z,2.83
2018-06-01T02:58:05.715Z,2.90
2018-06-01T03:00:09.684Z,7.00
2018-06-01T03:02:15.538Z,2.47
2018-06-01T03:04:20.193Z,3.03
2018-06-01T03:06:24.317Z,5.50
2018-06-01T03:08:28.397Z,3.47
2018-06-01T03:10:32.375Z,1.97
2018-06-01T03:12:36.364Z,2.07
2018-06-01T03:14:41.381Z,2.33
2018-06-01T03:16:45.680Z,2.10
2018-06-01T03:18:49.534Z,2.90
2018-06-01T03:20:53.445Z,2.73
2018-06-01T03:22:57.460Z,3.10
2018-06-01T03:25:02.618Z,5.80
2018-06-01T03:27:06.489Z,6.53
2018-06-01T03:29:10.381Z,5.53
2018-06-01T03:31:15.071Z,3.13
2018-06-01T03:33:19.048Z,3.43
2018-06-01T03:35:23.063Z,2.57
2018-06-01T03:37:27.044Z,4.00
2018-06-01T03:39:31.081Z,4.60
2018-06-01T03:41:35.066Z,3.00
2018-06-01T03:43:42.456Z,3.80
2018-06-01T03:45:46.440Z,3.23
2018-06-01T03:47:51.769Z,4.23
2018-06-01T03:49:55.961Z,4.40
2018-06-01T03:51:59.792Z,3.37
2018-06-01T03:54:03.846Z,5.40
2018-06-01T03:56:07.965Z,5.77
2018-06-01T03:58:12.005Z,6.27
2018-06-01T04:00:16.236Z,5.67
2018-06-01T04:02:23.456Z,7.23
2018-06-01T04:04:27.355Z,4.23
2018-06-01T04:06:31.323Z,5.00
2018-06-01T04:08:39.873Z,4.27
2018-06-01T04:10:44.482Z,5.87
2018-06-01T04:12:49.157Z,4.63
2018-06-01T04:14:53.553Z,4.60
2018-06-01T04:16:57.560Z,6.43
2018-06-01T04:19:02.185Z,5.93
2018-06-01T04:21:06.501Z,3.90
2018-06-01T04:23:10.322Z,3.50
2018-06-01T04:25:14.233Z,4.17
2018-06-01T04:27:18.342Z,4.47
2018-06-01T04:29:22.937Z,6.00
2018-06-01T04:31:27.577Z,6.90
2018-06-01T04:33:32.993Z,5.43
2018-06-01T04:35:36.853Z,6.27
2018-06-01T04:37:41.685Z,4.30
2018-06-01T04:39:46.021Z,5.30
2018-06-01T04:41:49.929Z,6.47
2018-06-01T04:43:54.715Z,5.33
2018-06-01T04:46:00.130Z,6.07
2018-06-01T04:48:04.034Z,8.93
2018-06-01T04:50:08.636Z,5.17
2018-06-01T04:52:13.648Z,7.13
2018-06-01T04:54:18.344Z,4.17
2018-06-01T04:56:23.154Z,7.40
2018-06-01T04:58:27.041Z,7.07
2018-06-01T05:00:31.016Z,4.33
2018-06-01T05:02:36.653Z,7.03
2018-06-01T05:04:40.909Z,5.83
2018-06-01T05:06:44.889Z,6.40
2018-06-01T05:08:48.729Z,8.33
2018-06-01T05:10:52.916Z,5.17
2018-06-01T05:12:58.601Z,8.13
2018-06-01T05:15:03.910Z,6.80
2018-06-01T05:17:08.008Z,4.60
2018-06-01T05:19:11.989Z,5.73
2018-06-01T05:21:15.844Z,7.30
2018-06-01T05:23:21.385Z,5.63
2018-06-01T05:25:26.266Z,5.50
2018-06-01T05:27:30.884Z,4.37
2018-06-01T05:29:35.074Z,5.70
2018-06-01T05:31:39.007Z,6.70
2018-06-01T05:33:42.916Z,5.17
2018-06-01T05:35:52.045Z,8.00
2018-06-01T05:37:55.940Z,5.40
2018-06-01T05:39:59.765Z,5.17
2018-06-01T05:42:03.973Z,5.37
2018-06-01T05:44:07.873Z,6.60
2018-06-01T05:46:11.885Z,5.50
2018-06-01T05:48:15.985Z,8.33
2018-06-01T05:50:19.793Z,4.60
2018-06-01T05:52:23.597Z,8.37
2018-06-01T05:54:27.568Z,5.10
2018-06-01T05:56:31.384Z,4.93
2018-06-01T05:58:36.325Z,6.17
2018-06-01T06:00:42.181Z,5.07
2018-06-01T06:02:46.566Z,5.97
2018-06-01T06:04:50.468Z,8.70
2018-06-01T06:06:54.272Z,5.13
2018-06-01T06:08:58.118Z,5.07
2018-06-01T06:11:02.004Z,7.50
2018-06-01T06:13:06.164Z,7.40
2018-06-01T06:15:12.593Z,8.57
2018-06-01T06:17:16.509Z,5.87
2018-06-01T06:19:20.426Z,7.43
2018-06-01T06:21:24.309Z,7.20
2018-06-01T06:23:29.038Z,6.33
2018-06-01T06:25:33.200Z,6.77
2018-06-01T06:27:41.102Z,7.50
2018-06-01T06:29:45.057Z,5.20
2018-06-01T06:31:49.013Z,5.83
2018-06-01T06:33:52.901Z,4.83
2018-06-01T06:36:01.609Z,6.93
2018-06-01T06:38:05.562Z,6.67
2018-06-01T06:40:09.471Z,5.30
2018-06-01T06:42:13.684Z,4.90
2018-06-01T06:44:17.517Z,6.57
2018-06-01T06:46:21.532Z,5.80
2018-06-01T06:48:25.717Z,6.97
2018-06-01T06:50:29.752Z,9.00
2018-06-01T06:52:33.645Z,4.83
2018-06-01T06:54:37.913Z,4.70
2018-06-01T06:56:41.810Z,6.10
2018-06-01T06:58:46.459Z,5.53
2018-06-01T07:00:50.692Z,6.47
2018-06-01T07:02:54.726Z,4.53
2018-06-01T07:04:58.705Z,6.20
2018-06-01T07:07:02.663Z,6.00
2018-06-01T07:09:07.837Z,4.80
2018-06-01T07:11:11.716Z,5.47
2018-06-01T07:13:16.257Z,11.23
2018-06-01T07:15:20.138Z,4.40
2018-06-01T07:17:24.725Z,6.53
2018-06-01T07:19:28.665Z,8.70
2018-06-01T07:21:32.499Z,6.30
2018-06-01T07:23:37.251Z,4.33
2018-06-01T07:25:41.537Z,6.00
2018-06-01T07:27:45.400Z,4.73
2018-06-01T07:29:50.433Z,5.20
2018-06-01T07:31:55.866Z,5.33
2018-06-01T07:33:59.996Z,6.33
2018-06-01T07:36:04.520Z,4.87
2018-06-01T07:38:09.800Z,4.30
2018-06-01T07:40:13.905Z,5.63
2018-06-01T07:42:18.429Z,5.47
2018-06-01T07:44:22.621Z,5.10
2018-06-01T07:46:27.329Z,5.83
2018-06-01T07:48:31.188Z,4.63
2018-06-01T07:50:40.769Z,6.00
2018-06-01T07:52:44.645Z,6.17
2018-06-01T07:54:48.521Z,7.00
2018-06-01T07:56:53.893Z,5.80
2018-06-01T07:58:58.122Z,6.57
2018-06-01T08:01:03.397Z,5.50
2018-06-01T08:03:07.332Z,4.77
2018-06-01T08:05:11.614Z,7.03
2018-06-01T08:07:15.430Z,4.60
2018-06-01T08:09:19.693Z,6.00
2018-06-01T08:11:24.325Z,6.40
2018-06-01T08:13:28.173Z,4.93
2018-06-01T08:15:32.071Z,8.70
2018-06-01T08:17:35.966Z,6.07
2018-06-01T08:19:39.865Z,7.27
2018-06-01T08:21:45.297Z,6.37
2018-06-01T08:23:49.200Z,5.20
2018-06-01T08:25:53.069Z,5.67
2018-06-01T08:27:56.914Z,5.37
2018-06-01T08:30:00.757Z,6.60
2018-06-01T08:32:04.742Z,6.80
2018-06-01T08:34:09.104Z,5.37
2018-06-01T08:36:12.964Z,5.13
2018-06-01T08:38:18.061Z,10.13
2018-06-01T08:40:22.429Z,5.73
2018-06-01T08:42:26.498Z,7.17
2018-06-01T08:44:31.132Z,5.93
2018-06-01T08:46:36.392Z,5.27
2018-06-01T08:48:40.277Z,4.67
2018-06-01T08:50:44.129Z,4.73
2018-06-01T08:52:52.406Z,6.57
2018-06-01T08:54:57.536Z,5.60
2018-06-01T08:57:02.033Z,6.07
2018-06-01T08:59:11.853Z,7.70
2018-06-01T09:01:15.729Z,6.53
2018-06-01T09:03:19.647Z,9.63
2018-06-01T09:05:23.983Z,6.33
2018-06-01T09:07:28.673Z,6.43
2018-06-01T09:09:32.643Z,5.73
2018-06-01T09:11:37.211Z,7.37
2018-06-01T09:13:42.468Z,5.30
2018-06-01T09:15:47.181Z,5.07
2018-06-01T09:17:52.517Z,5.00
2018-06-01T09:19:56.381Z,6.23
2018-06-01T09:22:00.309Z,6.73
2018-06-01T09:24:04.281Z,6.17
2018-06-01T09:26:09.226Z,7.10
2018-06-01T09:28:13.943Z,4.47
2018-06-01T09:30:18.351Z,5.73
2018-06-01T09:32:22.255Z,7.53
2018-06-01T09:34:26.272Z,6.77
2018-06-01T09:36:30.124Z,5.63
2018-06-01T09:38:34.181Z,4.97
2018-06-01T09:40:38.060Z,5.10
2018-06-01T09:42:44.145Z,4.97
2018-06-01T09:44:48.163Z,4.53
2018-06-01T09:46:52.319Z,5.00
2018-06-01T09:48:57.713Z,4.77
2018-06-01T09:51:01.581Z,5.93
2018-06-01T09:53:06.068Z,5.23
2018-06-01T09:55:10.326Z,4.53
2018-06-01T09:57:15.637Z,5.97
2018-06-01T09:59:19.541Z,3.73
2018-06-01T10:01:28.134Z,3.77
2018-06-01T10:03:32.081Z,5.57
2018-06-01T10:05:36.716Z,5.03
2018-06-01T10:07:41.765Z,3.90
2018-06-01T10:09:49.809Z,4.57
2018-06-01T10:11:53.669Z,5.60
2018-06-01T10:13:59.986Z,5.07
2018-06-01T10:16:04.428Z,7.30
2018-06-01T10:18:08.826Z,3.60
2018-06-01T10:20:12.817Z,5.37
2018-06-01T10:22:16.745Z,3.80
2018-06-01T10:24:20.675Z,5.33
2018-06-01T10:26:24.969Z,5.13
2018-06-01T10:28:29.005Z,3.87
2018-06-01T10:30:35.881Z,4.00
2018-06-01T10:32:39.854Z,4.27
2018-06-01T10:34:43.881Z,4.00
2018-06-01T10:36:47.881Z,4.53
2018-06-01T10:38:52.188Z,5.57
2018-06-01T10:40:57.237Z,4.43
2018-06-01T10:43:01.371Z,3.67
2018-06-01T10:45:06.824Z,3.33
2018-06-01T10:47:10.825Z,4.33
2018-06-01T10:49:14.901Z,3.37
2018-06-01T10:51:20.037Z,3.47
2018-06-01T10:53:23.919Z,3.50
2018-06-01T10:55:27.829Z,4.10
2018-06-01T10:57:32.137Z,6.13
2018-06-01T10:59:35.998Z,5.90
2018-06-01T11:01:39.967Z,4.50
2018-06-01T11:03:44.261Z,3.87
2018-06-01T11:05:48.151Z,4.67
2018-06-01T11:07:52.025Z,9.60
2018-06-01T11:09:56.489Z,8.03
2018-06-01T11:12:00.665Z,7.43
2018-06-01T11:14:05.072Z,5.63
2018-06-01T11:16:09.369Z,5.30
2018-06-01T11:18:13.285Z,9.30
2018-06-01T11:20:17.918Z,4.83
2018-06-01T11:22:24.452Z,5.73
2018-06-01T11:24:28.447Z,5.53
2018-06-01T11:26:32.335Z,5.57
2018-06-01T11:28:42.152Z,5.57
2018-06-01T11:30:45.993Z,4.63
2018-06-01T11:32:49.891Z,5.43
2018-06-01T11:34:54.205Z,6.63
2018-06-01T11:36:58.096Z,5.60
2018-06-01T11:39:01.958Z,5.13
2018-06-01T11:41:06.881Z,7.47
2018-06-01T11:43:10.780Z,3.73
2018-06-01T11:45:17.111Z,8.33
2018-06-01T11:47:26.376Z,5.87
2018-06-01T11:49:30.380Z,6.37
2018-06-01T11:51:35.109Z,3.87
2018-06-01T11:53:39.809Z,5.90
2018-06-01T11:55:43.978Z,4.60
2018-06-01T11:57:48.346Z,6.27
2018-06-01T11:59:52.257Z,4.03
2018-06-01T12:01:56.473Z,4.73
2018-06-01T12:04:00.405Z,4.83
2018-06-01T12:06:05.013Z,3.90
2018-06-01T12:08:10.859Z,4.37
2018-06-01T12:10:15.500Z,2.67
2018-06-01T12:12:20.330Z,2.70
2018-06-01T12:14:24.606Z,2.93
2018-06-01T12:16:28.564Z,3.40
2018-06-01T12:18:32.549Z,3.43
2018-06-01T12:20:37.253Z,3.87
2018-06-01T12:22:41.223Z,4.27
2018-06-01T12:24:45.177Z,3.53
2018-06-01T12:26:49.492Z,4.03
2018-06-01T12:28:55.000Z,5.63
2018-06-01T12:30:58.981Z,10.97
2018-06-01T12:33:02.885Z,3.97
2018-06-01T12:35:07.769Z,3.47
2018-06-01T12:37:13.240Z,4.97
2018-06-01T12:39:18.269Z,5.07
2018-06-01T12:41:22.153Z,5.10
2018-06-01T12:43:26.892Z,4.00
2018-06-01T12:45:30.947Z,3.53
2018-06-01T12:47:34.783Z,4.60
2018-06-01T12:49:38.685Z,3.27
2018-06-01T12:51:44.528Z,6.00
2018-06-01T12:53:48.477Z,3.87
2018-06-01T12:55:53.276Z,5.43
2018-06-01T12:58:00.317Z,4.20
2018-06-01T13:00:06.134Z,3.67
2018-06-01T13:02:11.850Z,3.83
2018-06-01T13:04:17.054Z,4.23
2018-06-01T13:06:21.033Z,6.10
2018-06-01T13:08:25.073Z,3.83
2018-06-01T13:10:29.382Z,4.07
2018-06-01T13:12:33.270Z,3.50
2018-06-01T13:14:37.129Z,3.93
2018-06-01T13:16:41.385Z,3.10
2018-06-01T13:18:45.373Z,4.63
2018-06-01T13:20:50.112Z,3.93
2018-06-01T13:22:54.478Z,11.53
2018-06-01T13:24:58.397Z,3.80
2018-06-01T13:27:02.321Z,5.47
2018-06-01T13:29:06.992Z,4.17
2018-06-01T13:31:11.553Z,2.80
2018-06-01T13:33:15.918Z,3.27
2018-06-01T13:35:21.541Z,4.17
2018-06-01T13:37:25.529Z,3.07
2018-06-01T13:39:29.472Z,2.63
2018-06-01T13:41:33.419Z,2.70
2018-06-01T13:43:37.386Z,7.87
2018-06-01T13:45:41.241Z,3.63
2018-06-01T13:47:45.558Z,4.00
2018-06-01T13:49:56.020Z,2.30
2018-06-01T13:52:00.013Z,3.13
2018-06-01T13:54:04.507Z,3.97
2018-06-01T13:56:09.014Z,3.23
2018-06-01T13:58:12.856Z,2.77
2018-06-01T14:00:30.318Z,4.27
2018-06-01T14:02:34.150Z,5.47
2018-06-01T14:04:38.300Z,4.63
2018-06-01T14:06:42.876Z,5.23
2018-06-01T14:08:46.704Z,2.57
2018-06-01T14:10:50.613Z,2.70
2018-06-01T14:12:54.925Z,3.70
2018-06-01T14:17:30.092Z,3.97
2018-06-01T14:19:37.395Z,2.90
2018-06-01T14:21:45.482Z,4.47
2018-06-01T14:23:52.771Z,2.53
2018-06-01T14:25:58.370Z,4.60
2018-06-01T14:28:11.529Z,3.47
2018-06-01T14:30:18.767Z,2.30
2018-06-01T14:32:29.643Z,2.87
2018-06-01T14:34:33.634Z,2.83
2018-06-01T14:36:37.571Z,5.20
2018-06-01T14:38:43.614Z,2.83
2018-06-01T14:40:48.120Z,4.13
2018-06-01T14:42:53.316Z,2.03
2018-06-01T14:44:59.410Z,3.20
2018-06-01T14:47:03.525Z,2.83
2018-06-01T14:49:08.914Z,3.47
2018-06-01T14:51:13.535Z,3.20
2018-06-01T14:53:18.421Z,2.13
2018-06-01T14:55:22.449Z,3.63
2018-06-01T14:57:26.979Z,3.40
2018-06-01T14:59:31.123Z,2.00
2018-06-01T15:01:43.553Z,2.00
2018-06-01T15:03:47.796Z,4.40
2018-06-01T15:05:53.002Z,2.93
2018-06-01T15:07:58.168Z,2.47
2018-06-01T15:10:03.333Z,3.97
2018-06-01T15:12:07.446Z,4.60
2018-06-01T15:14:13.079Z,1.97
2018-06-01T15:16:17.891Z,4.63
2018-06-01T15:18:22.037Z,3.23
2018-06-01T15:20:26.757Z,2.30
2018-06-01T15:22:33.612Z,3.23
2018-06-01T15:24:39.310Z,2.47
2018-06-01T15:26:43.427Z,3.33
2018-06-01T15:28:47.784Z,2.80
2018-06-01T15:30:51.819Z,3.33
2018-06-01T15:35:19.931Z,1.70
2018-06-01T15:37:30.672Z,3.37
2018-06-01T15:39:37.599Z,3.50
2018-06-01T15:41:52.139Z,2.40
2018-06-01T15:43:58.959Z,2.50
2018-06-01T15:46:08.566Z,2.80
2018-06-01T15:55:29.672Z,4.23
2018-06-01T15:57:38.744Z,3.13
2018-06-01T15:59:44.477Z,2.87
2018-06-01T16:01:51.238Z,2.30
2018-06-01T16:03:59.887Z,2.00
2018-06-01T16:06:16.321Z,2.40
2018-06-01T16:08:22.922Z,2.70
2018-06-01T16:10:36.828Z,2.87
2018-06-01T16:12:44.826Z,2.83
2018-06-01T16:14:57.783Z,2.67
2018-06-01T16:17:24.231Z,3.73
2018-06-01T16:22:51.189Z,3.17
2018-06-01T16:24:55.967Z,4.03
2018-06-01T16:27:01.261Z,4.33
2018-06-01T16:29:05.383Z,1.90
2018-06-01T16:36:09.680Z,2.43
2018-06-01T16:38:15.332Z,2.67
2018-06-01T16:40:30.737Z,3.13
2018-06-01T16:42:40.123Z,2.00
2018-06-01T16:44:49.136Z,4.43
2018-06-01T16:46:57.348Z,2.23
2018-06-01T16:49:14.310Z,3.53
2018-06-01T16:51:19.090Z,2.83
2018-06-01T16:53:23.538Z,1.70
2018-06-01T16:55:27.993Z,2.83
2018-06-01T16:57:32.261Z,3.30
2018-06-01T16:59:36.949Z,2.20
2018-06-01T17:01:41.722Z,3.90
2018-06-01T17:03:45.769Z,5.10
2018-06-01T17:05:50.081Z,4.23
2018-06-01T17:07:54.236Z,3.33
2018-06-01T17:09:58.303Z,3.33
2018-06-01T17:12:02.877Z,6.60
2018-06-01T17:14:07.012Z,3.17
2018-06-01T17:16:12.484Z,3.43
2018-06-01T17:18:16.954Z,2.60
2018-06-01T17:20:21.804Z,3.10
2018-06-01T17:22:29.243Z,2.80
2018-06-01T17:24:34.282Z,3.03
2018-06-01T17:26:38.363Z,3.27
2018-06-01T17:28:43.983Z,5.37
2018-06-01T17:30:48.391Z,2.70
2018-06-01T17:32:53.330Z,4.50
2018-06-01T17:34:57.389Z,4.03
2018-06-01T17:37:03.230Z,3.93
2018-06-01T17:39:08.129Z,4.03
2018-06-01T17:41:12.745Z,5.73
2018-06-01T17:43:17.141Z,4.37
2018-06-01T17:45:21.971Z,4.70
2018-06-01T17:47:32.857Z,4.47
2018-06-01T17:49:50.701Z,4.67
2018-06-01T17:52:04.923Z,4.17
2018-06-01T17:54:20.472Z,5.20
2018-06-01T17:56:46.118Z,4.67
2018-06-01T17:58:58.288Z,2.20
2018-06-01T18:06:35.405Z,3.50
2018-06-01T18:08:39.392Z,5.60
2018-06-01T18:10:43.854Z,3.17
2018-06-01T18:12:49.554Z,4.70
2018-06-01T18:14:53.759Z,2.23
2018-06-01T18:16:59.200Z,2.27
2018-06-01T18:19:03.601Z,2.67
2018-06-01T18:21:07.789Z,1.80
2018-06-01T18:23:15.263Z,2.70
2018-06-01T18:27:34.888Z,3.77
2018-06-01T18:29:39.034Z,2.63
2018-06-01T18:31:43.217Z,2.30
2018-06-01T18:33:47.326Z,1.60
2018-06-01T18:35:51.657Z,2.33
2018-06-01T18:37:55.714Z,3.10
2018-06-01T18:40:02.794Z,2.23
2018-06-01T18:42:08.119Z,6.00
2018-06-01T18:44:12.151Z,4.60
2018-06-01T18:46:18.260Z,4.00
2018-06-01T18:48:22.581Z,2.03
2018-06-01T18:50:26.726Z,3.47
2018-06-01T18:52:30.704Z,2.73
2018-06-01T18:54:36.838Z,2.57
2018-06-01T18:56:40.890Z,1.53
2018-06-01T18:58:45.011Z,3.20
2018-06-01T19:00:50.117Z,2.87
2018-06-01T19:02:54.199Z,2.60
2018-06-01T19:04:58.363Z,2.20
2018-06-01T19:07:04.720Z,2.77
2018-06-01T19:09:15.175Z,2.00
2018-06-01T19:11:19.688Z,2.53
2018-06-01T19:13:24.077Z,1.97
2018-06-01T19:15:28.068Z,4.07
2018-06-01T19:17:32.234Z,2.00
2018-06-01T19:19:36.368Z,3.73
2018-06-01T19:21:42.015Z,3.67
2018-06-01T19:23:46.172Z,2.20
2018-06-01T19:25:51.227Z,1.97
2018-06-01T19:27:55.206Z,2.10
2018-06-01T19:29:59.462Z,3.93
2018-06-01T19:32:03.859Z,2.20
2018-06-01T19:34:08.234Z,4.17
2018-06-01T19:36:12.477Z,2.43
2018-06-01T19:38:18.009Z,2.57
2018-06-01T19:40:22.803Z,6.53
2018-06-01T19:42:27.842Z,1.80
2018-06-01T19:44:37.365Z,1.80
2018-06-01T19:46:42.473Z,2.10
2018-06-01T19:48:46.903Z,1.80
2018-06-01T19:50:52.260Z,2.43
2018-06-01T19:52:57.965Z,2.23
2018-06-01T19:55:02.036Z,1.93
2018-06-01T19:57:06.859Z,2.10
2018-06-01T19:59:11.923Z,2.43
2018-06-01T20:01:15.871Z,2.67
2018-06-01T20:03:21.946Z,1.90
2018-06-01T20:05:26.240Z,5.40
2018-06-01T20:07:30.510Z,4.40
2018-06-01T20:09:34.791Z,3.23
2018-06-01T20:11:39.554Z,3.83
2018-06-01T20:13:44.719Z,3.50
2018-06-01T20:15:49.974Z,1.90
2018-06-01T20:17:55.664Z,2.13
2018-06-01T20:19:59.773Z,3.10
2018-06-01T20:22:06.216Z,2.07
2018-06-01T20:24:10.412Z,4.23
2018-06-01T20:26:16.196Z,1.80
2018-06-01T20:28:21.053Z,3.53
2018-06-01T20:30:26.076Z,2.90
2018-06-01T20:32:32.071Z,2.70
2018-06-01T20:34:36.588Z,4.83
2018-06-01T20:36:41.420Z,4.83
2018-06-01T20:38:46.241Z,4.33
2018-06-01T20:40:51.171Z,2.30
2018-06-01T20:42:56.240Z,4.03
2018-06-01T20:45:01.216Z,3.87
2018-06-01T20:47:07.065Z,3.73
2018-06-01T20:49:11.362Z,5.93
2018-06-01T20:51:15.456Z,4.20
2018-06-01T20:53:19.899Z,4.73
2018-06-01T20:55:24.071Z,4.53
2018-06-01T20:57:28.140Z,2.90
2018-06-01T20:59:32.804Z,3.40
2018-06-01T21:01:37.321Z,5.00
2018-06-01T21:03:41.438Z,4.90
2018-06-01T21:05:45.475Z,4.53
2018-06-01T21:07:49.509Z,3.57
2018-06-01T21:09:53.631Z,3.83
2018-06-01T21:11:59.251Z,3.90
2018-06-01T21:14:04.163Z,5.70
2018-06-01T21:16:08.259Z,2.53
2018-06-01T21:18:13.804Z,4.73
2018-06-01T21:20:17.926Z,7.07
2018-06-01T21:22:21.989Z,4.60
2018-06-01T21:24:26.320Z,4.10
2018-06-01T21:26:30.483Z,4.37
2018-06-01T21:28:34.794Z,3.33
2018-06-01T21:30:40.371Z,3.67
2018-06-01T21:32:45.136Z,5.90
2018-06-01T21:34:49.230Z,4.43
2018-06-01T21:36:54.561Z,6.33
2018-06-01T21:38:58.580Z,3.90
2018-06-01T21:41:02.664Z,3.93
2018-06-01T21:43:07.826Z,5.03
2018-06-01T21:45:13.362Z,6.33
2018-06-01T21:47:17.776Z,7.90
2018-06-01T21:49:22.995Z,5.07
2018-06-01T21:51:27.995Z,6.57
2018-06-01T21:53:33.898Z,3.93
2018-06-01T21:55:38.829Z,4.30
2018-06-01T21:57:43.661Z,6.20
2018-06-01T21:59:47.806Z,5.57
2018-06-01T22:01:54.627Z,5.13
2018-06-01T22:03:59.478Z,5.73
2018-06-01T22:06:03.569Z,4.30
2018-06-01T22:08:08.892Z,3.67
2018-06-01T22:10:12.987Z,5.30
2018-06-01T22:12:17.246Z,5.50
2018-06-01T22:14:22.399Z,4.83
2018-06-01T22:16:26.453Z,6.90
2018-06-01T22:18:31.112Z,7.27
2018-06-01T22:20:35.987Z,5.03
2018-06-01T22:22:40.054Z,5.10
2018-06-01T22:24:44.097Z,5.30
2018-06-01T22:26:48.465Z,4.87
2018-06-01T22:28:53.362Z,6.67
2018-06-01T22:31:03.730Z,5.73
2018-06-01T22:33:19.470Z,6.00
2018-06-01T22:38:07.211Z,4.70
2018-06-01T22:40:13.411Z,7.77
2018-06-01T22:42:26.765Z,4.23
2018-06-01T22:44:45.042Z,10.43
2018-06-01T22:46:50.647Z,6.53
2018-06-01T22:48:57.129Z,5.10
2018-06-01T22:51:03.345Z,5.73
2018-06-01T22:53:20.477Z,7.53
2018-06-01T22:55:26.412Z,7.67
2018-06-01T22:57:32.722Z,8.33
2018-06-01T22:59:40.649Z,5.70
2018-06-01T23:01:49.816Z,5.27
2018-06-01T23:14:01.365Z,6.30
2018-06-01T23:16:05.538Z,7.37
2018-06-01T23:18:09.525Z,6.57
2018-06-01T23:20:22.629Z,5.77
2018-06-01T23:22:26.665Z,6.97
2018-06-01T23:24:30.807Z,5.47
2018-06-01T23:26:35.396Z,5.60
2018-06-01T23:28:47.699Z,8.50
2018-06-01T23:30:53.365Z,6.87
2018-06-01T23:33:00.989Z,7.10
2018-06-01T23:35:05.197Z,4.67
2018-06-01T23:37:09.550Z,4.10
2018-06-01T23:39:13.950Z,5.23
2018-06-01T23:41:18.998Z,5.77
2018-06-01T23:43:23.762Z,6.50
2018-06-01T23:45:28.105Z,4.97
2018-06-01T23:47:33.394Z,5.97
2018-06-01T23:49:42.362Z,7.47
2018-06-01T23:51:46.887Z,10.53
2018-06-01T23:53:53.933Z,5.53
2018-06-01T23:55:59.754Z,7.73
2018-06-01T23:58:07.050Z,11.00
